PREVISON - TAF: TAF - Paris-Aeroport Charles De Gaulle, France du: 20190121110000h UTC
TypeJUTCVentVisi. H.CouvertureMétéo
PREVISION 211100 221100 20° 6 km/h = 6000 m NSC
EVOLUTION 220100 212200 200° 19 km/h
EVOLUTION 220000 220500 = 4000 m BKN à 305 m - SN
PROVISOIRE 220800 220800 = 1500 m BKN à 122 m SN
EVOLUTION 220000 211200 = 6000 m BKN à 305 m NSW
PROB prob. 40%
PROVISOIRE 211300 211300 BKN à 244 m -SH RASN

PREVISION brut - TAF LFPG 211100Z 2112/2218 02003KT 6000 NSC TX02/2114Z TNM02/2200Z BECMG 2122/2124 20010KT BECMG 2205/2207 4000 -SN BKN010 TEMPO 2208/2212 1500 SN BKN004 BECMG 2212/2214 6000 NSW BKN010 PROB40 TEMPO 2213/2215 -SHRASN BKN008


METAR brut: LFPG 211400Z VRB02KT CAVOK 02/M03 Q1022 NOSIG
Vent: Paris-Aeroport Charles De Gaulle, France Météo: Paris-Aeroport Charles De Gaulle, France
METAR décodé: Paris-Aeroport Charles De Gaulle, France.
Up : 9 mn à 14:00 UTC.
Vent : 4 km/h var.
Visibilité Hor. : plus de 10 km.
Nuages : (CAVOK) aucun nuages sous 1500 m, pas de cumulonimbus et pas de phénomène significatif. .
Température : 2 °C. P. rosée. : -3 °C.
Humidité : 69.4%.
Pression : 1022 hPa.
Météo : pas de changement significatif dans les deux prochaines heures..